createdAt,value
2022-10-22T00:01:56.741Z,98119.69
2022-10-22T00:04:25.607Z,98116.09
2022-10-22T00:06:54.248Z,98119.90
2022-10-22T00:09:23.376Z,98111.95
2022-10-22T00:11:52.038Z,98106.59
2022-10-22T00:14:21.937Z,98099.80
2022-10-22T00:16:50.755Z,98091.88
2022-10-22T00:19:25.763Z,98086.26
2022-10-22T00:21:54.572Z,98090.62
2022-10-22T00:24:23.503Z,98093.28
2022-10-22T00:26:52.185Z,98093.36
2022-10-22T00:29:21.479Z,98091.96
2022-10-22T00:31:50.773Z,98087.31
2022-10-22T00:34:21.617Z,98085.95
2022-10-22T00:36:52.229Z,98091.66
2022-10-22T00:39:23.008Z,98097.46
2022-10-22T00:41:54.642Z,98086.05
2022-10-22T00:44:59.652Z,98082.98
2022-10-22T00:47:31.598Z,98077.43
2022-10-22T00:52:36.381Z,98073.34
2022-10-22T00:55:06.690Z,98076.57
2022-10-22T00:57:36.042Z,98082.75
2022-10-22T01:00:06.611Z,98082.60
2022-10-22T01:02:34.442Z,98079.04
2022-10-22T01:05:06.598Z,98078.64
2022-10-22T01:07:38.019Z,98077.50
2022-10-22T01:10:15.939Z,98078.16
2022-10-22T01:12:51.295Z,98082.52
2022-10-22T01:15:26.899Z,98081.30
2022-10-22T01:18:06.169Z,98080.46
2022-10-22T01:20:53.846Z,98079.42
2022-10-22T01:23:46.340Z,98074.48
2022-10-22T01:29:03.076Z,98072.44
2022-10-22T01:31:38.332Z,98067.17
2022-10-22T01:34:08.209Z,98066.20
2022-10-22T01:36:38.323Z,98070.28
2022-10-22T01:39:08.535Z,98074.89
2022-10-22T01:41:44.727Z,98071.02
2022-10-22T01:44:25.747Z,98068.49
2022-10-22T01:47:02.673Z,98067.03
2022-10-22T01:49:39.770Z,98064.39
2022-10-22T01:52:15.914Z,98064.13
2022-10-22T01:54:52.086Z,98062.18
2022-10-22T01:57:33.359Z,98061.69
2022-10-22T02:00:06.364Z,98058.57
2022-10-22T02:02:41.736Z,98061.08
2022-10-22T02:05:16.835Z,98064.89
2022-10-22T02:07:52.006Z,98066.15
2022-10-22T02:10:22.104Z,98065.51
2022-10-22T02:12:57.769Z,98061.33
2022-10-22T02:15:29.491Z,98057.58
2022-10-22T02:18:00.071Z,98057.39
2022-10-22T02:20:31.384Z,98056.84
2022-10-22T02:23:01.406Z,98056.25
2022-10-22T02:25:33.795Z,98062.79
2022-10-22T02:28:11.744Z,98063.86
2022-10-22T02:30:41.510Z,98067.23
2022-10-22T02:33:11.829Z,98060.51
2022-10-22T02:44:08.797Z,98051.19
2022-10-22T03:09:16.910Z,98087.88
2022-10-22T03:25:22.607Z,98072.69
2022-10-22T03:41:05.844Z,98059.55
2022-10-22T04:06:19.796Z,98079.83
2022-10-22T04:22:36.192Z,98051.36
2022-10-22T04:25:04.958Z,98038.97
2022-10-22T04:27:34.424Z,98041.33
2022-10-22T04:34:32.607Z,98051.48
2022-10-22T04:54:09.880Z,98033.63
2022-10-22T04:56:37.718Z,98033.80
2022-10-22T05:08:12.043Z,98020.52
2022-10-22T05:11:34.551Z,98021.48
2022-10-22T05:22:18.002Z,98034.56
2022-10-22T05:25:17.859Z,98044.21
2022-10-22T05:32:26.246Z,98034.83
2022-10-22T05:53:04.449Z,98073.14
2022-10-22T05:55:36.623Z,98078.08
2022-10-22T06:07:05.138Z,98048.98
2022-10-22T06:21:06.998Z,98071.02
2022-10-22T06:23:37.050Z,98083.13
2022-10-22T06:26:15.361Z,98082.23
2022-10-22T06:33:07.951Z,98092.81
2022-10-22T06:35:42.057Z,98107.67
2022-10-22T06:38:09.737Z,98122.60
2022-10-22T06:40:44.405Z,98119.77
2022-10-22T06:43:13.273Z,98118.54
2022-10-22T06:54:59.138Z,98144.63
2022-10-22T07:01:57.932Z,98135.73
2022-10-22T07:07:51.699Z,98131.48
2022-10-22T07:10:25.992Z,98132.73
2022-10-22T07:13:55.224Z,98138.65
2022-10-22T07:16:29.631Z,98125.76
2022-10-22T07:19:58.683Z,98108.14
2022-10-22T07:22:30.061Z,98106.62
2022-10-22T07:25:09.613Z,98091.95
2022-10-22T07:32:11.946Z,98085.98
2022-10-22T07:34:48.689Z,98076.48
2022-10-22T07:37:22.612Z,98083.36
2022-10-22T07:40:03.011Z,98089.27
2022-10-22T07:43:27.717Z,98086.64
2022-10-22T07:46:04.719Z,98098.39
2022-10-22T07:48:35.266Z,98097.54
2022-10-22T07:51:13.003Z,98107.53
2022-10-22T07:57:03.925Z,98124.41
2022-10-22T08:02:46.344Z,98121.58
2022-10-22T08:05:22.382Z,98107.77
2022-10-22T08:08:47.587Z,98092.40
2022-10-22T08:12:10.538Z,98095.84
2022-10-22T08:19:32.567Z,98100.17
2022-10-22T08:22:09.537Z,98116.47
2022-10-22T08:24:41.918Z,98124.77
2022-10-22T08:27:13.073Z,98123.63
2022-10-22T08:29:46.162Z,98127.39
2022-10-22T08:32:23.393Z,98123.91
2022-10-22T08:34:53.857Z,98107.45
2022-10-22T08:45:57.942Z,98118.61
2022-10-22T08:57:54.773Z,98133.14
2022-10-22T09:05:11.514Z,98134.13
2022-10-22T09:11:03.582Z,98135.69
2022-10-22T09:13:40.395Z,98134.98
2022-10-22T09:16:19.545Z,98138.86
2022-10-22T09:19:07.227Z,98135.39
2022-10-22T09:21:45.479Z,98133.83
2022-10-22T09:24:20.098Z,98137.89
2022-10-22T09:26:51.511Z,98135.75
2022-10-22T09:29:24.750Z,98142.22
2022-10-22T09:31:55.455Z,98145.70
2022-10-22T09:34:25.862Z,98144.27
2022-10-22T09:37:00.774Z,98147.55
2022-10-22T09:39:37.981Z,98157.94
2022-10-22T09:42:08.595Z,98161.90
2022-10-22T09:44:39.398Z,98156.00
2022-10-22T09:47:42.891Z,98160.20
2022-10-22T09:50:24.598Z,98152.02
2022-10-22T09:52:59.517Z,98153.05
2022-10-22T09:55:29.840Z,98156.13
2022-10-22T09:58:01.512Z,98156.81
2022-10-22T10:00:32.017Z,98159.87
2022-10-22T10:03:02.358Z,98160.33
2022-10-22T10:05:34.443Z,98162.50
2022-10-22T10:08:09.598Z,98161.36
2022-10-22T10:10:43.419Z,98159.45
2022-10-22T10:13:39.807Z,98161.73
2022-10-22T10:20:48.176Z,98156.63
2022-10-22T10:35:41.957Z,98147.40
2022-10-22T10:43:06.901Z,98146.38
2022-10-22T10:49:27.776Z,98159.55
2022-10-22T10:56:40.165Z,98159.46
2022-10-22T10:59:16.555Z,98157.14
2022-10-22T11:01:55.230Z,98162.86
2022-10-22T11:04:42.847Z,98159.38
2022-10-22T11:07:30.086Z,98159.20
2022-10-22T11:10:10.298Z,98158.05
2022-10-22T11:12:45.359Z,98152.07
2022-10-22T11:15:23.406Z,98150.14
2022-10-22T11:17:56.374Z,98148.42
2022-10-22T11:20:29.692Z,98145.65
2022-10-22T11:23:18.935Z,98138.08
2022-10-22T11:25:51.112Z,98137.73
2022-10-22T11:28:25.913Z,98137.65
2022-10-22T11:30:59.348Z,98138.41
2022-10-22T11:33:33.981Z,98143.48
2022-10-22T11:48:38.802Z,98136.40
2022-10-22T11:55:48.718Z,98129.10
2022-10-22T11:59:34.092Z,98121.73
2022-10-22T12:21:59.657Z,98127.77
2022-10-22T12:28:21.678Z,98119.13
2022-10-22T12:30:52.314Z,98117.38
2022-10-22T12:33:23.745Z,98117.02
2022-10-22T12:43:39.597Z,98108.23
2022-10-22T12:46:13.842Z,98104.92
2022-10-22T12:49:00.705Z,98106.45
2022-10-22T12:54:57.879Z,98104.55
2022-10-22T12:57:28.433Z,98114.59
2022-10-22T13:00:05.052Z,98114.98
2022-10-22T13:02:35.695Z,98108.62
2022-10-22T13:09:05.147Z,98104.17
2022-10-22T13:17:08.755Z,98098.63
2022-10-22T13:19:48.813Z,98096.91
2022-10-22T13:26:53.160Z,98101.61
2022-10-22T13:29:30.232Z,98108.63
2022-10-22T13:32:01.273Z,98107.94
2022-10-22T13:34:37.867Z,98113.01
2022-10-22T13:37:09.841Z,98109.33
2022-10-22T13:39:48.097Z,98107.89
2022-10-22T13:42:18.557Z,98108.27
2022-10-22T13:44:58.704Z,98105.52
2022-10-22T13:47:30.239Z,98106.88
2022-10-22T13:57:04.085Z,98108.98
2022-10-22T13:59:34.476Z,98110.05
2022-10-22T14:02:06.582Z,98113.81
2022-10-22T14:09:31.972Z,98115.96
2022-10-22T14:16:19.425Z,98115.23
2022-10-22T14:18:50.069Z,98121.29
2022-10-22T14:21:26.798Z,98126.46
2022-10-22T14:23:57.315Z,98129.68
2022-10-22T14:26:33.118Z,98133.16
2022-10-22T14:29:09.347Z,98131.15
2022-10-22T14:31:47.348Z,98130.81
2022-10-22T14:34:23.793Z,98126.88
2022-10-22T14:36:54.359Z,98129.54
2022-10-22T14:39:30.832Z,98128.66
2022-10-22T14:42:01.319Z,98126.04
2022-10-22T14:45:24.758Z,98124.98
2022-10-22T14:47:56.452Z,98122.16
2022-10-22T14:51:21.017Z,98126.47
2022-10-22T14:53:57.944Z,98121.85
2022-10-22T14:57:23.357Z,98122.71
2022-10-22T14:59:54.953Z,98118.79
2022-10-22T15:02:26.203Z,98120.77
2022-10-22T15:07:31.951Z,98123.09
2022-10-22T15:10:02.343Z,98120.77
2022-10-22T15:12:32.809Z,98119.54
2022-10-22T15:15:03.218Z,98122.09
2022-10-22T15:17:34.009Z,98125.38
2022-10-22T15:20:05.563Z,98125.97
2022-10-22T15:22:36.567Z,98122.83
2022-10-22T15:25:08.672Z,98121.63
2022-10-22T15:27:39.046Z,98121.68
2022-10-22T15:30:10.113Z,98123.65
2022-10-22T15:32:40.763Z,98123.13
2022-10-22T15:35:13.150Z,98125.30
2022-10-22T15:37:43.535Z,98126.39
2022-10-22T15:40:14.157Z,98129.29
2022-10-22T15:42:44.723Z,98131.92
2022-10-22T15:45:15.751Z,98133.61
2022-10-22T15:47:48.118Z,98137.83
2022-10-22T15:50:21.223Z,98139.52
2022-10-22T15:52:51.734Z,98142.25
2022-10-22T15:55:22.101Z,98148.55
2022-10-22T15:57:57.178Z,98150.25
2022-10-22T16:00:29.684Z,98153.98
2022-10-22T16:02:59.958Z,98160.52
2022-10-22T16:05:30.425Z,98164.52
2022-10-22T16:08:00.903Z,98161.39
2022-10-22T16:10:31.496Z,98166.67
2022-10-22T16:13:02.371Z,98167.77
2022-10-22T16:15:33.310Z,98171.14
2022-10-22T16:18:03.844Z,98173.45
2022-10-22T16:20:34.273Z,98177.67
2022-10-22T16:23:04.785Z,98180.98
2022-10-22T16:25:39.850Z,98185.88
2022-10-22T16:28:11.133Z,98189.20
2022-10-22T16:30:41.826Z,98194.12
2022-10-22T16:33:12.401Z,98192.33
2022-10-22T16:35:45.760Z,98195.64
2022-10-22T16:38:17.469Z,98197.38
2022-10-22T16:40:47.761Z,98199.23
2022-10-22T16:43:18.132Z,98201.09
2022-10-22T16:45:53.958Z,98207.40
2022-10-22T16:48:24.505Z,98211.17
2022-10-22T16:50:54.851Z,98213.42
2022-10-22T16:53:26.019Z,98215.55
2022-10-22T16:55:56.623Z,98215.14
2022-10-22T16:58:27.663Z,98216.88
2022-10-22T17:00:58.365Z,98220.49
2022-10-22T17:03:28.723Z,98224.96
2022-10-22T17:06:01.368Z,98229.55
2022-10-22T17:08:32.307Z,98232.73
2022-10-22T17:11:06.144Z,98232.41
2022-10-22T17:13:36.743Z,98235.08
2022-10-22T17:16:07.936Z,98236.11
2022-10-22T17:18:40.749Z,98238.77
2022-10-22T17:21:12.054Z,98238.96
2022-10-22T17:23:42.603Z,98243.39
2022-10-22T17:26:17.544Z,98248.80
2022-10-22T17:28:47.927Z,98251.38
2022-10-22T17:31:19.485Z,98253.65
2022-10-22T17:33:50.940Z,98255.54
2022-10-22T17:36:21.707Z,98252.91
2022-10-22T17:38:52.764Z,98255.39
2022-10-22T17:41:24.194Z,98259.31
2022-10-22T17:43:55.612Z,98258.20
2022-10-22T17:46:27.145Z,98262.11
2022-10-22T17:48:58.697Z,98271.89
2022-10-22T17:51:29.681Z,98270.47
2022-10-22T17:54:02.434Z,98269.34
2022-10-22T17:56:35.100Z,98267.27
2022-10-22T17:59:12.320Z,98265.85
2022-10-22T18:01:47.807Z,98262.61
2022-10-22T18:04:19.685Z,98257.58
2022-10-22T18:06:50.123Z,98252.80
2022-10-22T18:09:20.808Z,98253.84
2022-10-22T18:16:16.839Z,98250.95
2022-10-22T18:18:48.200Z,98255.96
2022-10-22T18:21:20.821Z,98255.69
2022-10-22T18:23:51.326Z,98252.59
2022-10-22T18:26:25.886Z,98261.05
2022-10-22T18:28:57.461Z,98266.78
2022-10-22T18:31:33.103Z,98274.77
2022-10-22T18:34:03.491Z,98279.70
2022-10-22T18:36:33.791Z,98283.28
2022-10-22T18:39:04.958Z,98284.84
2022-10-22T18:41:35.938Z,98288.84
2022-10-22T18:44:08.204Z,98293.54
2022-10-22T18:46:41.585Z,98293.32
2022-10-22T18:49:15.080Z,98294.33
2022-10-22T18:51:48.767Z,98301.14
2022-10-22T18:54:23.007Z,98304.35
2022-10-22T18:56:54.937Z,98308.38
2022-10-22T18:59:28.317Z,98310.27
2022-10-22T19:02:00.440Z,98311.73
2022-10-22T19:04:36.754Z,98310.27
2022-10-22T19:09:38.079Z,98306.10
2022-10-22T19:12:09.098Z,98308.87
2022-10-22T19:14:39.649Z,98317.99
2022-10-22T19:17:10.421Z,98323.70
2022-10-22T19:19:45.331Z,98328.42
2022-10-22T19:22:15.839Z,98328.37
2022-10-22T19:24:47.325Z,98334.80
2022-10-22T19:27:20.847Z,98333.05
2022-10-22T19:29:54.236Z,98327.92
2022-10-22T19:32:27.496Z,98340.09
2022-10-22T19:35:01.225Z,98341.34
2022-10-22T19:37:31.772Z,98348.13
2022-10-22T19:40:02.723Z,98347.49
2022-10-22T19:42:33.345Z,98349.66
2022-10-22T19:45:08.223Z,98351.20
2022-10-22T19:47:38.947Z,98355.69
2022-10-22T19:50:09.998Z,98361.11
2022-10-22T19:52:43.878Z,98364.44
2022-10-22T19:55:14.640Z,98366.10
2022-10-22T19:57:45.381Z,98364.27
2022-10-22T20:00:16.184Z,98369.30
2022-10-22T20:02:49.040Z,98372.34
2022-10-22T20:05:20.714Z,98373.02
2022-10-22T20:07:51.253Z,98373.17
2022-10-22T20:10:21.654Z,98369.68
2022-10-22T20:12:52.709Z,98374.08
2022-10-22T20:15:23.077Z,98370.90
2022-10-22T20:17:55.239Z,98368.15
2022-10-22T20:20:28.803Z,98374.83
2022-10-22T20:23:02.362Z,98378.61
2022-10-22T20:25:32.836Z,98377.71
2022-10-22T20:28:03.716Z,98380.91
2022-10-22T20:30:34.083Z,98383.76
2022-10-22T20:33:04.436Z,98382.31
2022-10-22T20:35:34.809Z,98381.42
2022-10-22T20:38:06.091Z,98381.77
2022-10-22T20:40:37.496Z,98379.96
2022-10-22T20:43:10.550Z,98384.30
2022-10-22T20:45:45.732Z,98389.96
2022-10-22T20:48:16.132Z,98390.77
2022-10-22T20:50:46.461Z,98395.75
2022-10-22T20:53:17.843Z,98391.58
2022-10-22T20:55:48.959Z,98390.90
2022-10-22T20:58:20.685Z,98395.69
2022-10-22T21:00:53.326Z,98397.98
2022-10-22T21:03:23.958Z,98399.14
2022-10-22T21:05:54.660Z,98401.63
2022-10-22T21:08:25.215Z,98404.38
2022-10-22T21:10:55.622Z,98407.22
2022-10-22T21:13:26.212Z,98408.48
2022-10-22T21:15:56.657Z,98410.92
2022-10-22T21:18:27.103Z,98410.92
2022-10-22T21:20:57.626Z,98412.75
2022-10-22T21:23:28.323Z,98414.91
2022-10-22T21:26:01.767Z,98414.02
2022-10-22T21:28:35.335Z,98416.20
2022-10-22T21:31:07.453Z,98418.40
2022-10-22T21:33:38.287Z,98416.16
2022-10-22T21:36:10.073Z,98422.66
2022-10-22T21:38:43.212Z,98426.38
2022-10-22T21:41:15.126Z,98423.60
2022-10-22T21:43:46.095Z,98422.48
2022-10-22T21:46:18.241Z,98422.70
2022-10-22T21:48:49.192Z,98426.09
2022-10-22T21:51:20.472Z,98429.88
2022-10-22T21:56:23.810Z,98432.33
2022-10-22T21:58:54.145Z,98429.61
2022-10-22T22:01:25.192Z,98430.95
2022-10-22T22:03:58.507Z,98431.34
2022-10-22T22:06:33.037Z,98436.61
2022-10-22T22:09:05.970Z,98435.05
2022-10-22T22:11:36.846Z,98432.80
2022-10-22T22:14:07.803Z,98432.09
2022-10-22T22:16:38.802Z,98430.86
2022-10-22T22:19:09.807Z,98429.95
2022-10-22T22:21:41.440Z,98428.00
2022-10-22T22:24:13.810Z,98433.61
2022-10-22T22:26:44.298Z,98430.58
2022-10-22T22:29:15.705Z,98429.16
2022-10-22T22:31:48.401Z,98425.48
2022-10-22T22:34:22.035Z,98428.23
2022-10-22T22:36:52.939Z,98436.95
2022-10-22T22:39:23.765Z,98442.33
2022-10-22T22:41:54.502Z,98447.79
2022-10-22T22:44:25.364Z,98447.70
2022-10-22T22:46:55.748Z,98448.00
2022-10-22T22:49:29.497Z,98449.93
2022-10-22T22:51:59.951Z,98452.30
2022-10-22T22:54:30.736Z,98455.07
2022-10-22T22:57:01.610Z,98456.17
2022-10-22T22:59:32.021Z,98457.91
2022-10-22T23:02:04.832Z,98462.92
2022-10-22T23:04:36.870Z,98461.15
2022-10-22T23:07:09.436Z,98459.91
2022-10-22T23:09:43.901Z,98461.70
2022-10-22T23:12:14.540Z,98461.09
2022-10-22T23:14:48.285Z,98462.58
2022-10-22T23:17:18.860Z,98465.46
2022-10-22T23:19:49.901Z,98469.10
2022-10-22T23:22:20.900Z,98473.30
2022-10-22T23:24:51.992Z,98475.94
2022-10-22T23:27:22.409Z,98480.61
2022-10-22T23:29:56.669Z,98483.33
2022-10-22T23:32:27.114Z,98478.27
2022-10-22T23:34:57.811Z,98482.16
2022-10-22T23:37:28.253Z,98482.10
2022-10-22T23:40:00.073Z,98487.84
2022-10-22T23:42:32.012Z,98495.23
2022-10-22T23:45:05.642Z,98497.73
2022-10-22T23:47:37.884Z,98500.41
2022-10-22T23:50:09.176Z,98508.05
2022-10-22T23:52:39.810Z,98509.92
2022-10-22T23:55:13.190Z,98511.58
2022-10-22T23:57:43.623Z,98515.89
